Time;durP1;ratioP1;P1;durP2;ratioP2;P2;SDS_P1;SDS_P2;PMS_P1;PMS_P2;Temp;Humidity;BMP_temperature;BMP_pressure;BME280_temperature;BME280_humidity;BME280_pressure;Samples;Min_cycle;Max_cycle;Signal;HPM_P1;HPM_P2
2021/12/18 00:01:14;;;;;;;4.63;2.00;;;7.50;99.90;;;;;;5074195;28;20040;-78
2021/12/18 00:03:40;;;;;;;5.75;1.98;;;7.50;99.90;;;;;;5072615;28;20052;-78
2021/12/18 00:06:06;;;;;;;4.13;2.08;;;7.50;99.90;;;;;;5072283;28;20101;-78
2021/12/18 00:08:31;;;;;;;6.43;1.88;;;7.40;99.90;;;;;;5073807;28;20037;-78
2021/12/18 00:10:57;;;;;;;4.55;1.92;;;7.40;99.90;;;;;;5072241;28;20408;-78
2021/12/18 00:13:23;;;;;;;5.53;2.13;;;7.40;99.90;;;;;;5072333;28;20032;-78
2021/12/18 00:15:49;;;;;;;8.35;2.35;;;7.40;99.90;;;;;;5072106;28;20051;-78
2021/12/18 00:18:15;;;;;;;5.20;2.50;;;7.40;99.90;;;;;;5072366;28;20111;-78
2021/12/18 00:20:41;;;;;;;6.20;2.08;;;7.40;99.90;;;;;;5072490;28;20102;-78
2021/12/18 00:23:06;;;;;;;5.57;2.38;;;7.40;99.90;;;;;;5072253;28;20093;-78
2021/12/18 00:25:32;;;;;;;10.48;2.25;;;7.40;99.90;;;;;;5071949;28;20037;-78
2021/12/18 00:27:58;;;;;;;13.05;2.65;;;7.50;99.90;;;;;;5071975;28;20040;-78
2021/12/18 00:30:24;;;;;;;7.93;2.53;;;7.40;99.90;;;;;;5071965;28;20064;-78
2021/12/18 00:32:49;;;;;;;6.72;2.35;;;7.50;99.90;;;;;;5072267;28;20053;-78
2021/12/18 00:35:15;;;;;;;5.70;2.60;;;7.50;99.90;;;;;;5071717;28;20051;-79
2021/12/18 00:37:41;;;;;;;7.95;2.47;;;7.50;99.90;;;;;;5071924;28;20041;-78
2021/12/18 00:40:11;;;;;;;4.00;2.08;;;7.50;99.90;;;;;;5078597;28;20060;-80
2021/12/18 00:42:42;;;;;;;4.47;2.15;;;7.50;99.90;;;;;;5083667;28;20076;-80
2021/12/18 00:45:12;;;;;;;5.43;1.90;;;7.50;99.90;;;;;;5083855;28;20040;-80
2021/12/18 00:47:38;;;;;;;8.95;1.92;;;7.50;99.90;;;;;;5083354;28;20431;-80
2021/12/18 00:50:06;;;;;;;5.03;1.60;;;7.40;99.90;;;;;;5082340;28;20507;-80
2021/12/18 00:52:32;;;;;;;3.72;2.13;;;7.30;99.90;;;;;;5082231;28;20381;-80
2021/12/18 00:54:58;;;;;;;4.88;1.27;;;7.40;99.90;;;;;;5081743;28;20051;-80
2021/12/18 00:57:24;;;;;;;3.85;1.52;;;7.30;99.90;;;;;;5081956;28;20041;-80
2021/12/18 00:59:52;;;;;;;3.92;1.15;;;7.30;99.90;;;;;;5081901;28;20064;-80
2021/12/18 01:02:17;;;;;;;2.28;1.02;;;7.20;99.90;;;;;;5065841;28;20032;-80
2021/12/18 01:04:43;;;;;;;4.20;1.30;;;7.20;99.90;;;;;;5082228;28;20124;-79
2021/12/18 01:07:09;;;;;;;4.20;1.40;;;7.10;99.90;;;;;;5065148;28;20044;-80
2021/12/18 01:12:07;;;;;;;2.70;1.27;;;7.10;99.90;;;;;;5071627;28;20049;-78
2021/12/18 01:25:03;;;;;;;5.30;1.60;;;7.10;99.90;;;;;;5071163;28;20083;-78
2021/12/18 01:27:30;;;;;;;4.30;1.08;;;7.10;99.90;;;;;;5070979;28;20488;-78
2021/12/18 01:29:55;;;;;;;2.75;1.10;;;7.10;99.90;;;;;;5071269;28;20032;-78
2021/12/18 01:32:21;;;;;;;3.08;1.30;;;7.10;99.90;;;;;;5071270;28;20147;-78
2021/12/18 01:34:48;;;;;;;3.28;1.13;;;7.10;99.90;;;;;;5071199;28;20121;-78
2021/12/18 01:37:14;;;;;;;2.80;1.33;;;7.00;99.90;;;;;;5070873;28;20044;-78
2021/12/18 01:39:39;;;;;;;2.53;1.00;;;7.00;99.90;;;;;;5070887;28;20111;-78
2021/12/18 01:53:03;;;;;;;4.63;1.27;;;6.90;99.90;;;;;;5070864;28;20507;-78
2021/12/18 01:55:34;;;;;;;3.15;1.10;;;6.90;99.90;;;;;;5070602;28;20049;-78
2021/12/18 01:58:00;;;;;;;2.55;1.05;;;6.90;99.90;;;;;;5070681;28;20090;-78
2021/12/18 02:00:34;;;;;;;3.63;1.20;;;6.80;99.90;;;;;;5070814;28;20036;-78
2021/12/18 02:03:00;;;;;;;2.38;0.98;;;6.80;99.90;;;;;;5070716;28;20044;-78
2021/12/18 02:05:26;;;;;;;2.38;1.00;;;6.80;99.90;;;;;;5070563;28;20577;-78
2021/12/18 02:07:52;;;;;;;4.82;1.20;;;6.80;99.90;;;;;;5070418;28;20052;-78
2021/12/18 02:10:21;;;;;;;2.05;0.80;;;6.90;99.90;;;;;;5070565;28;20044;-78
2021/12/18 02:20:49;;;;;;;2.28;0.93;;;6.80;99.90;;;;;;5070558;28;20083;-78
2021/12/18 02:23:15;;;;;;;4.97;1.30;;;6.90;99.90;;;;;;5070846;28;20468;-78
2021/12/18 02:25:44;;;;;;;2.30;0.85;;;6.80;99.90;;;;;;5070425;28;20047;-78
2021/12/18 02:28:19;;;;;;;1.60;0.82;;;6.80;99.90;;;;;;5070284;28;20032;-78
2021/12/18 02:30:46;;;;;;;2.67;0.93;;;6.80;99.90;;;;;;5070316;28;20079;-78
2021/12/18 02:33:12;;;;;;;3.83;1.08;;;6.80;99.90;;;;;;5071495;28;20041;-78
2021/12/18 02:35:51;;;;;;;2.47;1.05;;;6.80;99.90;;;;;;5074563;28;20507;-78
2021/12/18 02:38:20;;;;;;;3.35;1.23;;;6.80;99.90;;;;;;5074688;28;20040;-78
2021/12/18 02:43:37;;;;;;;3.58;0.73;;;6.90;99.90;;;;;;5074226;28;20048;-78
2021/12/18 02:46:07;;;;;;;3.95;1.00;;;6.80;99.90;;;;;;5074088;28;20044;-78
2021/12/18 02:48:38;;;;;;;2.58;0.75;;;6.80;99.90;;;;;;5074260;28;20044;-78
2021/12/18 02:51:06;;;;;;;3.20;1.10;;;6.80;99.90;;;;;;5074196;28;20044;-78
2021/12/18 02:53:33;;;;;;;6.75;1.20;;;6.70;99.90;;;;;;5074282;28;20048;-78
2021/12/18 02:56:03;;;;;;;1.73;0.80;;;6.70;99.90;;;;;;5074132;28;20056;-78
2021/12/18 02:58:30;;;;;;;2.83;0.93;;;6.70;99.90;;;;;;5074451;28;20040;-78
2021/12/18 03:00:58;;;;;;;3.45;1.00;;;6.70;99.90;;;;;;5073860;28;20052;-78
2021/12/18 03:03:28;;;;;;;1.70;1.02;;;6.70;99.90;;;;;;5073914;28;20119;-78
2021/12/18 03:06:08;;;;;;;6.97;1.38;;;6.70;99.90;;;;;;5073680;28;20049;-78
2021/12/18 03:08:48;;;;;;;2.63;1.50;;;6.70;99.90;;;;;;5073761;28;20060;-78
2021/12/18 03:27:24;;;;;;;3.60;1.50;;;6.60;99.90;;;;;;5074184;28;20086;-78
2021/12/18 03:29:50;;;;;;;6.03;1.60;;;6.60;99.90;;;;;;5074182;28;20127;-78
2021/12/18 03:32:16;;;;;;;4.82;1.38;;;6.60;99.90;;;;;;5073648;28;20642;-78
2021/12/18 03:34:42;;;;;;;2.75;1.20;;;6.50;99.90;;;;;;5073668;28;20123;-78
2021/12/18 03:37:08;;;;;;;8.77;2.15;;;6.60;99.90;;;;;;5074550;28;20040;-78
2021/12/18 03:39:33;;;;;;;7.60;1.88;;;6.60;99.90;;;;;;5073595;28;20115;-78
2021/12/18 03:41:59;;;;;;;8.38;1.77;;;6.60;99.90;;;;;;5074857;28;20040;-78
2021/12/18 03:44:25;;;;;;;7.18;1.77;;;6.70;99.90;;;;;;5073284;28;20492;-78
2021/12/18 03:46:50;;;;;;;3.15;1.40;;;6.70;99.90;;;;;;5073621;28;20076;-78
2021/12/18 03:49:17;;;;;;;2.58;0.75;;;6.60;99.90;;;;;;5073121;28;20492;-78
2021/12/18 03:51:43;;;;;;;6.78;0.93;;;6.60;99.90;;;;;;5056374;28;20041;-78
2021/12/18 03:54:08;;;;;;;8.73;1.30;;;6.50;99.90;;;;;;5073350;28;20040;-78
2021/12/18 03:56:34;;;;;;;2.65;0.85;;;6.50;99.90;;;;;;5073088;28;20051;-78
2021/12/18 03:59:00;;;;;;;2.35;0.80;;;6.50;99.90;;;;;;5073056;28;20040;-78
2021/12/18 04:01:26;;;;;;;1.85;0.70;;;6.40;99.90;;;;;;5072951;28;20048;-78
2021/12/18 04:03:52;;;;;;;3.30;1.75;;;6.40;99.90;;;;;;5073004;28;20295;-78
2021/12/18 04:06:18;;;;;;;2.85;0.98;;;6.40;99.90;;;;;;5072877;28;20093;-78
2021/12/18 04:08:44;;;;;;;1.63;0.73;;;6.40;99.90;;;;;;5072910;28;20051;-78
2021/12/18 04:11:10;;;;;;;6.35;1.08;;;6.40;99.90;;;;;;5073699;28;20037;-78
2021/12/18 04:13:36;;;;;;;2.47;1.00;;;6.30;99.90;;;;;;5073195;28;20045;-78
2021/12/18 04:16:02;;;;;;;2.03;0.88;;;6.30;99.90;;;;;;5072705;28;20044;-78
2021/12/18 04:18:28;;;;;;;2.47;1.10;;;6.20;99.90;;;;;;5072644;28;20032;-78
2021/12/18 04:20:54;;;;;;;2.15;0.90;;;6.20;99.90;;;;;;5072781;28;20044;-78
2021/12/18 04:23:19;;;;;;;2.03;0.93;;;6.20;99.90;;;;;;5072703;28;20484;-78
2021/12/18 04:25:45;;;;;;;2.78;0.98;;;6.30;99.90;;;;;;5072156;28;20128;-77
2021/12/18 04:28:10;;;;;;;3.40;1.20;;;6.20;99.90;;;;;;5072142;28;20040;-77
2021/12/18 04:30:36;;;;;;;3.78;1.58;;;6.10;99.90;;;;;;5055398;28;20047;-77
2021/12/18 04:33:02;;;;;;;2.53;1.13;;;6.20;99.90;;;;;;5072279;28;20484;-77
2021/12/18 04:35:28;;;;;;;4.25;1.08;;;6.20;99.90;;;;;;5072115;28;20044;-77
2021/12/18 04:37:54;;;;;;;4.72;0.98;;;6.10;99.90;;;;;;5072013;28;20112;-78
2021/12/18 04:40:26;;;;;;;2.38;1.10;;;6.20;99.90;;;;;;5072122;28;20132;-78
2021/12/18 04:42:53;;;;;;;2.60;1.10;;;6.20;99.90;;;;;;5072226;28;20377;-78
2021/12/18 04:45:19;;;;;;;3.22;1.17;;;6.10;99.90;;;;;;5071750;28;20040;-78
2021/12/18 04:47:44;;;;;;;2.60;0.85;;;6.20;99.90;;;;;;5071967;28;20048;-78
2021/12/18 04:50:10;;;;;;;2.20;1.20;;;6.20;99.90;;;;;;5071770;28;20052;-78
2021/12/18 04:52:36;;;;;;;4.43;1.30;;;6.20;99.90;;;;;;5071705;28;20123;-78
2021/12/18 04:55:03;;;;;;;2.22;1.50;;;6.20;99.90;;;;;;5071720;28;20037;-78
2021/12/18 04:57:29;;;;;;;3.17;1.25;;;6.20;99.90;;;;;;5070663;28;20119;-78
2021/12/18 04:59:55;;;;;;;3.00;1.00;;;6.20;99.90;;;;;;5071619;28;20119;-78
2021/12/18 05:02:25;;;;;;;3.58;1.30;;;6.20;99.90;;;;;;5071634;28;20040;-78
2021/12/18 05:04:52;;;;;;;1.55;0.70;;;6.20;99.90;;;;;;5071440;28;20056;-78
2021/12/18 05:07:18;;;;;;;3.38;0.77;;;6.20;99.90;;;;;;5071615;28;20404;-78
2021/12/18 05:09:44;;;;;;;3.92;1.00;;;6.30;99.90;;;;;;5071512;28;20067;-78
2021/12/18 05:12:10;;;;;;;1.90;0.88;;;6.30;99.90;;;;;;5072650;28;20040;-78
2021/12/18 05:14:36;;;;;;;3.58;0.73;;;6.20;99.90;;;;;;5071391;28;20055;-78
2021/12/18 05:17:02;;;;;;;2.90;1.23;;;6.20;99.90;;;;;;5072578;28;20135;-78
2021/12/18 05:19:27;;;;;;;2.53;0.90;;;6.20;99.90;;;;;;5071724;28;20044;-78
2021/12/18 05:21:53;;;;;;;4.38;1.48;;;6.20;99.90;;;;;;5071579;28;20037;-78
2021/12/18 05:24:18;;;;;;;2.45;1.00;;;6.20;99.90;;;;;;5071221;28;20511;-78
2021/12/18 05:26:44;;;;;;;2.60;0.70;;;6.20;99.90;;;;;;5070868;28;20079;-78
2021/12/18 05:29:10;;;;;;;3.50;1.15;;;6.20;99.90;;;;;;5077055;28;20091;-79
2021/12/18 05:31:35;;;;;;;2.50;0.90;;;6.20;99.90;;;;;;5076984;28;20048;-79
2021/12/18 05:34:03;;;;;;;4.35;1.45;;;6.20;99.90;;;;;;5077134;28;20036;-79
2021/12/18 05:36:51;;;;;;;1.95;0.80;;;6.20;99.90;;;;;;5076632;28;20460;-80
2021/12/18 05:39:16;;;;;;;2.92;1.20;;;6.20;99.90;;;;;;5077063;28;20512;-80
2021/12/18 05:41:42;;;;;;;3.03;0.93;;;6.20;99.90;;;;;;5077656;28;20405;-80
2021/12/18 05:44:07;;;;;;;3.80;1.10;;;6.20;99.90;;;;;;5078165;28;20093;-79
2021/12/18 05:46:34;;;;;;;5.22;1.65;;;6.20;99.90;;;;;;5076725;28;20063;-79
2021/12/18 05:48:59;;;;;;;4.03;1.30;;;6.20;99.90;;;;;;5076609;28;20047;-79
2021/12/18 05:51:25;;;;;;;5.45;1.52;;;6.20;99.90;;;;;;5076936;28;20036;-79
2021/12/18 05:53:51;;;;;;;3.13;1.17;;;6.20;99.90;;;;;;5059687;28;20040;-79
2021/12/18 05:56:16;;;;;;;5.07;1.30;;;6.20;99.90;;;;;;5077083;28;20048;-79
2021/12/18 05:58:44;;;;;;;6.63;1.38;;;6.20;99.90;;;;;;5076840;28;20128;-79
2021/12/18 06:01:11;;;;;;;4.90;1.67;;;6.30;99.90;;;;;;5076528;28;20511;-79
2021/12/18 06:03:36;;;;;;;3.22;1.27;;;6.20;99.90;;;;;;5077306;28;20044;-79
2021/12/18 06:06:02;;;;;;;4.55;1.40;;;6.20;99.90;;;;;;5076759;28;20123;-79
2021/12/18 06:08:31;;;;;;;4.32;1.42;;;6.30;99.90;;;;;;5076350;28;20044;-79
2021/12/18 06:11:00;;;;;;;3.88;1.02;;;6.20;99.90;;;;;;5075059;28;20048;-79
2021/12/18 06:13:26;;;;;;;3.50;1.63;;;6.10;99.90;;;;;;5077194;28;20043;-80
2021/12/18 06:15:51;;;;;;;4.55;1.42;;;6.20;99.90;;;;;;5075313;28;20100;-80
2021/12/18 06:18:17;;;;;;;4.43;1.42;;;6.20;99.90;;;;;;5076548;28;20041;-81
2021/12/18 06:20:42;;;;;;;4.47;1.10;;;6.20;99.90;;;;;;5076663;28;20411;-81
2021/12/18 06:23:08;;;;;;;5.25;1.20;;;6.20;99.90;;;;;;5076700;28;20051;-81
2021/12/18 06:25:34;;;;;;;3.58;1.38;;;6.20;99.90;;;;;;5077280;28;20085;-81
2021/12/18 06:27:59;;;;;;;4.18;2.53;;;6.20;99.90;;;;;;5077945;28;20033;-81
2021/12/18 06:30:25;;;;;;;6.07;1.05;;;6.20;99.90;;;;;;5078367;28;20049;-81
2021/12/18 06:32:50;;;;;;;4.13;1.38;;;6.20;99.90;;;;;;5079795;28;20067;-81
2021/12/18 06:35:16;;;;;;;4.00;1.42;;;6.20;99.90;;;;;;5079034;28;20045;-81
2021/12/18 06:37:41;;;;;;;3.58;1.27;;;6.20;99.90;;;;;;5079476;28;20037;-81
2021/12/18 06:40:07;;;;;;;9.73;1.23;;;6.20;99.90;;;;;;5080115;28;20041;-81
2021/12/18 06:42:33;;;;;;;3.72;1.35;;;6.20;99.90;;;;;;5079412;28;20072;-81
2021/12/18 06:44:59;;;;;;;4.97;1.42;;;6.20;99.90;;;;;;5079723;28;20048;-81
2021/12/18 06:47:24;;;;;;;5.35;1.63;;;6.20;99.90;;;;;;5078775;28;20039;-81
2021/12/18 06:49:50;;;;;;;6.05;2.00;;;6.20;99.90;;;;;;5080168;28;20040;-81
2021/12/18 06:52:15;;;;;;;4.70;1.52;;;6.20;99.90;;;;;;5080442;28;20050;-81
2021/12/18 06:54:41;;;;;;;3.30;1.45;;;6.20;99.90;;;;;;5073285;28;20059;-78
2021/12/18 06:57:07;;;;;;;4.82;1.67;;;6.30;99.90;;;;;;5069806;28;20047;-80
2021/12/18 06:59:32;;;;;;;2.78;1.08;;;6.20;99.90;;;;;;5070093;28;20040;-77
2021/12/18 07:01:58;;;;;;;6.38;1.05;;;6.20;99.90;;;;;;5070027;28;20310;-78
2021/12/18 07:04:24;;;;;;;4.05;1.13;;;6.20;99.90;;;;;;5069972;28;20040;-77
2021/12/18 07:06:51;;;;;;;6.60;1.17;;;6.20;99.90;;;;;;5069614;28;20059;-77
2021/12/18 07:09:17;;;;;;;3.30;1.25;;;6.20;99.90;;;;;;5069794;28;20048;-78
2021/12/18 07:11:44;;;;;;;3.75;1.13;;;6.20;99.90;;;;;;5069926;28;20040;-78
2021/12/18 07:14:09;;;;;;;3.97;1.38;;;6.20;99.90;;;;;;5069731;28;20045;-78
2021/12/18 07:16:35;;;;;;;6.05;1.60;;;6.20;99.90;;;;;;5069562;28;20074;-77
2021/12/18 07:19:00;;;;;;;3.53;0.93;;;6.20;99.90;;;;;;5069881;28;20043;-77
2021/12/18 07:21:26;;;;;;;5.28;1.50;;;6.20;99.90;;;;;;5073396;28;20423;-77
2021/12/18 07:23:51;;;;;;;8.23;1.83;;;6.20;99.90;;;;;;5073648;28;20051;-77
2021/12/18 07:26:17;;;;;;;3.80;1.20;;;6.20;99.90;;;;;;5073369;28;20045;-78
2021/12/18 07:28:42;;;;;;;6.20;1.40;;;6.20;99.90;;;;;;5073199;28;20067;-77
2021/12/18 07:31:08;;;;;;;3.40;1.23;;;6.20;99.90;;;;;;5073346;28;20053;-77
2021/12/18 07:33:37;;;;;;;2.42;1.20;;;6.20;99.90;;;;;;5073514;28;20480;-78
2021/12/18 07:36:03;;;;;;;5.00;1.50;;;6.20;99.90;;;;;;5073152;28;20040;-77
2021/12/18 07:38:28;;;;;;;6.43;1.60;;;6.20;99.90;;;;;;5073144;28;20550;-77
2021/12/18 07:40:54;;;;;;;5.88;1.70;;;6.20;99.90;;;;;;5073089;28;20451;-77
2021/12/18 07:43:19;;;;;;;3.60;1.33;;;6.20;99.90;;;;;;5073015;28;20410;-78
2021/12/18 07:45:45;;;;;;;4.88;1.42;;;6.30;99.90;;;;;;5056487;28;20044;-77
2021/12/18 07:48:11;;;;;;;5.40;1.67;;;6.30;99.90;;;;;;5056879;28;20033;-77
2021/12/18 07:50:36;;;;;;;10.80;1.50;;;6.30;99.90;;;;;;5057417;28;20079;-76
2021/12/18 07:53:02;;;;;;;4.97;1.88;;;6.30;99.90;;;;;;5056732;28;20041;-79
2021/12/18 07:55:28;;;;;;;6.53;1.95;;;6.30;99.90;;;;;;5056488;28;20526;-78
2021/12/18 07:57:54;;;;;;;4.25;1.75;;;6.30;99.90;;;;;;5056572;28;20299;-80
2021/12/18 08:00:21;;;;;;;5.38;2.15;;;6.30;99.90;;;;;;5073320;28;20044;-78
2021/12/18 08:02:46;;;;;;;4.25;1.40;;;6.30;99.90;;;;;;5073482;28;20048;-80
2021/12/18 08:05:14;;;;;;;8.20;1.70;;;6.40;99.90;;;;;;5074600;28;20047;-79
2021/12/18 08:07:40;;;;;;;5.20;1.40;;;6.50;99.90;;;;;;5073465;28;20119;-81
2021/12/18 08:10:06;;;;;;;5.10;1.52;;;6.40;99.90;;;;;;5072845;28;20491;-78
2021/12/18 08:12:32;;;;;;;8.63;1.73;;;6.40;99.90;;;;;;5057082;28;20075;-78
2021/12/18 08:14:58;;;;;;;5.78;1.70;;;6.40;99.90;;;;;;5073458;28;20503;-79
2021/12/18 08:17:25;;;;;;;6.05;2.03;;;6.40;99.90;;;;;;5073171;28;20045;-78
2021/12/18 08:19:51;;;;;;;4.95;1.75;;;6.50;99.90;;;;;;5073559;28;20044;-78
2021/12/18 08:22:16;;;;;;;5.15;1.50;;;6.50;99.90;;;;;;5073917;28;20156;-79
2021/12/18 08:24:42;;;;;;;7.32;1.58;;;6.50;99.90;;;;;;5074960;28;20100;-79
2021/12/18 08:27:08;;;;;;;5.57;1.67;;;6.60;99.90;;;;;;5059234;28;20037;-79
2021/12/18 08:29:35;;;;;;;8.13;1.70;;;6.60;99.90;;;;;;5061883;28;20059;-79
2021/12/18 08:32:01;;;;;;;7.38;2.10;;;6.60;99.90;;;;;;5078488;28;20087;-79
2021/12/18 08:34:26;;;;;;;3.97;1.67;;;6.60;99.90;;;;;;5077837;28;20040;-79
2021/12/18 08:36:52;;;;;;;6.45;2.20;;;6.80;99.90;;;;;;5073854;28;20043;-78
2021/12/18 08:39:18;;;;;;;6.93;1.73;;;6.70;99.90;;;;;;5072000;28;20083;-77
2021/12/18 08:41:45;;;;;;;4.50;1.50;;;6.70;99.90;;;;;;5055456;28;20162;-78
2021/12/18 08:44:11;;;;;;;6.10;1.65;;;6.70;99.90;;;;;;5072522;28;20044;-80
2021/12/18 08:46:37;;;;;;;5.97;2.05;;;6.70;99.90;;;;;;5055996;28;20044;-81
2021/12/18 08:49:03;;;;;;;5.35;2.78;;;6.80;99.90;;;;;;5073360;28;20075;-81
2021/12/18 08:51:29;;;;;;;7.90;2.42;;;6.80;99.90;;;;;;5073654;28;20051;-81
2021/12/18 08:53:55;;;;;;;6.47;2.00;;;6.70;99.90;;;;;;5056249;28;20036;-81
2021/12/18 08:56:20;;;;;;;6.53;2.40;;;6.80;99.90;;;;;;5072281;28;20039;-81
2021/12/18 08:58:46;;;;;;;6.97;1.88;;;6.80;99.90;;;;;;5074303;28;20086;-81
2021/12/18 09:01:11;;;;;;;7.47;2.28;;;6.80;99.90;;;;;;5074667;28;20045;-80
2021/12/18 09:03:37;;;;;;;8.02;2.70;;;6.90;99.90;;;;;;5073553;28;20033;-81
2021/12/18 09:06:03;;;;;;;8.90;2.40;;;6.90;99.90;;;;;;5073346;28;20048;-82
2021/12/18 09:08:29;;;;;;;9.32;2.40;;;6.90;99.90;;;;;;5072258;28;20039;-78
2021/12/18 09:10:54;;;;;;;69.47;33.83;;;6.90;99.90;;;;;;5073434;28;20044;-79
2021/12/18 09:13:20;;;;;;;13.73;5.70;;;6.90;99.90;;;;;;5072604;28;20044;-78
2021/12/18 09:15:46;;;;;;;8.27;2.65;;;7.00;99.90;;;;;;5073201;28;20032;-78
2021/12/18 09:18:11;;;;;;;9.77;3.25;;;7.00;99.90;;;;;;5074412;28;20036;-78
2021/12/18 09:20:37;;;;;;;8.70;2.78;;;7.00;99.90;;;;;;5073442;28;20052;-78
2021/12/18 09:23:03;;;;;;;6.75;3.22;;;7.00;99.90;;;;;;5072751;28;20091;-78
2021/12/18 09:25:29;;;;;;;7.35;3.13;;;7.00;99.90;;;;;;5072150;28;20045;-79
2021/12/18 09:27:57;;;;;;;8.38;3.00;;;7.00;99.90;;;;;;5073030;28;20123;-78
2021/12/18 09:30:23;;;;;;;13.50;3.72;;;7.00;99.90;;;;;;5055996;28;20447;-78
2021/12/18 09:32:49;;;;;;;9.63;3.17;;;7.10;99.90;;;;;;5074562;28;20036;-78
2021/12/18 09:35:15;;;;;;;12.05;3.60;;;7.10;99.90;;;;;;5073479;28;20094;-78
2021/12/18 09:37:41;;;;;;;10.60;3.78;;;7.10;99.90;;;;;;5056113;28;20044;-79
2021/12/18 09:40:09;;;;;;;11.75;3.92;;;7.20;99.90;;;;;;5056831;28;20462;-78
2021/12/18 09:42:36;;;;;;;16.45;4.05;;;7.20;99.90;;;;;;5072814;28;20036;-78
2021/12/18 09:45:04;;;;;;;12.23;3.85;;;7.20;99.90;;;;;;5072403;28;20488;-76
2021/12/18 09:47:29;;;;;;;9.70;3.10;;;7.30;99.90;;;;;;5071053;28;20048;-76
2021/12/18 09:49:55;;;;;;;10.73;3.55;;;7.30;99.90;;;;;;5070762;28;20044;-77
2021/12/18 09:52:21;;;;;;;7.30;3.50;;;7.40;99.90;;;;;;5070786;28;20040;-75
2021/12/18 09:54:47;;;;;;;6.47;3.13;;;7.40;99.90;;;;;;5072123;28;20503;-76
2021/12/18 09:57:13;;;;;;;11.13;3.95;;;7.40;99.90;;;;;;5071656;28;20071;-74
2021/12/18 09:59:39;;;;;;;8.48;3.63;;;7.40;99.90;;;;;;5053916;28;20067;-74
2021/12/18 10:02:05;;;;;;;8.52;3.10;;;7.50;99.90;;;;;;5070655;28;20044;-74
2021/12/18 10:04:33;;;;;;;10.18;3.40;;;7.50;99.90;;;;;;5070722;28;20036;-74
2021/12/18 10:07:33;;;;;;;9.23;3.55;;;7.60;99.90;;;;;;5063301;28;20039;-74
2021/12/18 10:10:00;;;;;;;9.05;3.50;;;7.60;99.90;;;;;;5017720;28;20051;-74
2021/12/18 10:12:33;;;;;;;8.77;3.97;;;7.60;99.90;;;;;;5072865;28;20044;-74
2021/12/18 10:15:01;;;;;;;7.95;3.85;;;7.60;99.90;;;;;;5062564;28;20111;-74
2021/12/18 10:17:36;;;;;;;7.82;3.53;;;7.60;99.90;;;;;;5089095;28;20036;-73
2021/12/18 10:20:11;;;;;;;9.77;3.42;;;7.70;99.90;;;;;;5072980;28;20070;-76
2021/12/18 10:22:43;;;;;;;9.55;4.32;;;7.70;99.90;;;;;;5072982;28;20097;-76
2021/12/18 10:25:09;;;;;;;;;;;7.70;99.90;;;;;;5070579;28;20502;-76
2021/12/18 10:27:41;;;;;;;9.68;3.50;;;7.70;99.90;;;;;;5080716;28;19962;-79
2021/12/18 10:30:17;;;;;;;10.10;3.58;;;7.80;99.90;;;;;;5092326;28;20036;-78
2021/12/18 10:33:14;;;;;;;8.68;4.05;;;7.80;99.90;;;;;;5074051;28;20032;-77
2021/12/18 10:35:45;;;;;;;11.25;4.50;;;7.90;99.90;;;;;;5090685;28;20044;-75
2021/12/18 10:38:52;;;;;;;8.35;3.63;;;7.90;99.90;;;;;;5090348;28;20077;-75
2021/12/18 10:41:22;;;;;;;11.07;3.95;;;7.90;99.90;;;;;;5089707;28;20070;-75
2021/12/18 10:44:07;;;;;;;11.32;3.47;;;8.00;99.90;;;;;;5089906;28;20127;-75
2021/12/18 10:46:36;;;;;;;12.52;3.88;;;8.00;99.90;;;;;;5077839;28;20072;-76
2021/12/18 10:49:05;;;;;;;10.40;3.47;;;8.00;99.90;;;;;;5088854;28;20044;-77
2021/12/18 10:51:33;;;;;;;13.38;3.75;;;8.00;99.90;;;;;;5090490;28;20126;-77
2021/12/18 10:54:06;;;;;;;8.80;3.75;;;8.00;99.90;;;;;;5090769;28;20040;-77
2021/12/18 10:56:40;;;;;;;11.25;3.50;;;8.10;99.90;;;;;;5096974;28;20040;-82
2021/12/18 10:59:22;;;;;;;11.00;4.28;;;8.10;99.90;;;;;;5096567;28;20093;-79
2021/12/18 11:01:54;;;;;;;8.70;3.15;;;8.20;99.90;;;;;;5097581;28;20109;-84
2021/12/18 11:04:29;;;;;;;9.02;3.00;;;8.20;99.90;;;;;;5095980;28;20072;-79
2021/12/18 11:06:56;;;;;;;6.60;3.67;;;8.30;99.90;;;;;;5094528;28;20403;-79
2021/12/18 11:09:29;;;;;;;11.98;3.50;;;8.30;99.90;;;;;;5094889;28;20050;-78
2021/12/18 11:14:39;;;;;;;7.50;2.70;;;8.40;99.90;;;;;;5094125;28;20047;-80
2021/12/18 11:17:11;;;;;;;9.63;2.97;;;8.40;99.90;;;;;;5095801;28;20032;-80
2021/12/18 11:19:39;;;;;;;12.20;3.25;;;8.40;99.90;;;;;;5094589;28;20122;-76
2021/12/18 11:22:15;;;;;;;8.07;3.03;;;8.40;99.90;;;;;;5078148;28;20452;-78
2021/12/18 11:24:49;;;;;;;10.60;3.05;;;8.50;99.90;;;;;;5096366;28;20036;-78
2021/12/18 11:27:18;;;;;;;5.60;2.72;;;8.50;99.90;;;;;;5111796;28;20657;-73
2021/12/18 11:29:55;;;;;;;6.97;2.70;;;8.50;99.90;;;;;;5093772;28;20097;-72
2021/12/18 11:32:27;;;;;;;5.32;2.60;;;8.50;99.90;;;;;;5093291;28;20392;-72
2021/12/18 11:34:55;;;;;;;7.88;3.38;;;8.50;99.90;;;;;;5094490;28;20157;-72
2021/12/18 11:37:23;;;;;;;7.28;2.75;;;8.50;99.90;;;;;;5091996;28;20404;-72
2021/12/18 11:39:50;;;;;;;10.38;3.92;;;8.60;99.90;;;;;;5094060;28;20040;-72
2021/12/18 11:42:17;;;;;;;7.63;3.03;;;8.60;99.90;;;;;;5093047;28;20105;-74
2021/12/18 11:44:51;;;;;;;10.15;3.17;;;8.60;99.90;;;;;;5094584;28;20040;-73
2021/12/18 11:47:35;;;;;;;8.73;3.10;;;8.70;99.90;;;;;;5092864;28;20518;-73
2021/12/18 11:50:26;;;;;;;7.00;2.80;;;8.70;99.90;;;;;;5094454;28;20047;-73
2021/12/18 11:53:24;;;;;;;8.23;3.38;;;8.60;99.90;;;;;;5088468;28;20058;-74
2021/12/18 11:55:50;;;;;;;8.27;3.78;;;8.60;99.90;;;;;;5048615;28;20070;-73
2021/12/18 11:58:24;;;;;;;9.35;3.55;;;8.60;99.90;;;;;;5093038;28;20483;-73
2021/12/18 12:00:51;;;;;;;8.77;3.10;;;8.60;99.90;;;;;;5093174;28;20452;-73
2021/12/18 12:03:37;;;;;;;6.93;3.03;;;8.70;99.90;;;;;;5093235;28;20050;-73
2021/12/18 12:06:24;;;;;;;7.03;2.97;;;8.60;99.90;;;;;;5092128;28;20075;-73
2021/12/18 12:09:21;;;;;;;6.53;2.92;;;8.60;99.90;;;;;;5092809;28;20073;-73
2021/12/18 12:11:55;;;;;;;5.53;2.33;;;8.70;99.90;;;;;;5091791;28;20569;-73
2021/12/18 12:14:23;;;;;;;5.78;2.40;;;8.70;99.90;;;;;;5092521;28;20122;-75
2021/12/18 12:16:48;;;;;;;7.70;2.38;;;8.70;99.90;;;;;;5092341;28;20068;-73
2021/12/18 12:19:18;;;;;;;5.32;2.10;;;8.70;99.90;;;;;;5093947;28;20075;-73
2021/12/18 12:21:57;;;;;;;7.72;2.00;;;8.70;99.90;;;;;;5093130;28;20075;-73
2021/12/18 12:24:28;;;;;;;8.65;2.28;;;8.70;99.90;;;;;;5092418;28;20082;-73
2021/12/18 12:27:14;;;;;;;3.38;1.65;;;8.70;99.90;;;;;;5092558;28;20032;-75
2021/12/18 12:29:46;;;;;;;3.13;1.50;;;8.70;99.90;;;;;;5075379;28;20511;-75
2021/12/18 12:32:12;;;;;;;3.25;1.70;;;8.70;99.90;;;;;;5091955;28;20044;-75
2021/12/18 12:34:38;;;;;;;2.75;1.40;;;8.70;99.90;;;;;;5092310;28;20044;-75
2021/12/18 12:37:22;;;;;;;4.68;1.40;;;8.70;99.90;;;;;;5091282;28;20040;-75
2021/12/18 12:39:54;;;;;;;3.47;1.42;;;8.70;99.90;;;;;;5091663;28;20050;-75
2021/12/18 12:42:20;;;;;;;5.68;1.60;;;8.70;99.90;;;;;;5092295;28;20063;-75
2021/12/18 12:47:54;;;;;;;3.05;1.08;;;8.80;99.90;;;;;;5010903;28;20141;-74
2021/12/18 12:50:19;;;;;;;3.92;1.33;;;8.80;99.90;;;;;;4994209;28;20064;-75
2021/12/18 12:52:57;;;;;;;2.85;1.30;;;8.80;99.90;;;;;;5040580;28;20433;-75
2021/12/18 12:55:26;;;;;;;2.33;1.38;;;8.70;99.90;;;;;;5091449;28;20043;-74
2021/12/18 12:57:57;;;;;;;2.80;1.58;;;8.70;99.90;;;;;;5091620;28;20044;-73
2021/12/18 13:00:26;;;;;;;1.55;1.10;;;8.70;99.90;;;;;;5091379;28;20036;-75
2021/12/18 13:02:55;;;;;;;3.92;1.27;;;8.70;99.90;;;;;;5091308;28;20063;-74
2021/12/18 13:05:23;;;;;;;4.90;1.35;;;8.70;99.90;;;;;;5084695;28;20524;-74
2021/12/18 13:07:52;;;;;;;2.38;1.23;;;8.70;99.90;;;;;;5079481;28;20087;-74
2021/12/18 13:10:18;;;;;;;3.75;1.60;;;8.70;99.90;;;;;;5069720;28;20119;-74
2021/12/18 13:13:05;;;;;;;4.22;1.88;;;8.70;99.90;;;;;;5073174;28;20404;-74
2021/12/18 13:16:13;;;;;;;10.55;2.17;;;8.70;99.90;;;;;;5090569;28;20036;-74
2021/12/18 13:18:54;;;;;;;3.85;2.13;;;8.70;99.90;;;;;;5089555;28;20598;-75
2021/12/18 13:21:40;;;;;;;3.75;2.05;;;8.70;99.90;;;;;;5090623;28;20076;-75
2021/12/18 13:24:08;;;;;;;4.38;1.98;;;8.70;99.90;;;;;;5091000;28;20434;-75
2021/12/18 13:26:42;;;;;;;7.05;2.25;;;8.70;99.90;;;;;;5090874;28;20044;-75
2021/12/18 13:29:19;;;;;;;6.15;1.63;;;8.70;99.90;;;;;;5091287;28;20564;-75
2021/12/18 13:31:54;;;;;;;4.35;2.25;;;8.70;99.90;;;;;;5090844;28;20488;-75
2021/12/18 13:34:26;;;;;;;8.45;2.00;;;8.70;99.90;;;;;;5090385;28;20116;-75
2021/12/18 13:36:56;;;;;;;7.35;1.80;;;8.70;99.90;;;;;;5089487;28;20040;-75
2021/12/18 13:39:24;;;;;;;2.72;1.48;;;8.70;99.90;;;;;;5091340;28;20044;-76
2021/12/18 13:41:59;;;;;;;4.82;1.95;;;8.70;99.90;;;;;;5091239;28;20044;-75
2021/12/18 13:44:42;;;;;;;3.35;2.20;;;8.70;99.90;;;;;;5091022;28;20035;-74
2021/12/18 13:47:14;;;;;;;5.70;2.20;;;8.70;99.90;;;;;;5091020;28;20050;-75
2021/12/18 13:49:39;;;;;;;8.32;2.08;;;8.70;99.90;;;;;;5090462;28;20046;-75
2021/12/18 13:52:05;;;;;;;5.13;2.35;;;8.70;99.90;;;;;;5090934;28;20123;-75
2021/12/18 13:54:34;;;;;;;14.70;3.05;;;8.70;99.90;;;;;;5091536;28;20114;-75
2021/12/18 13:57:00;;;;;;;6.78;2.92;;;8.70;99.90;;;;;;5071909;28;20079;-77
2021/12/18 13:59:26;;;;;;;5.32;2.58;;;8.70;99.90;;;;;;5080980;28;20474;-75